sensor_id;sensor_type;location;lat;lon;timestamp;pressure;altitude;pressure_sealevel;temperature;humidity
46223;BME280;31943;51.410;7.564;2022-09-30T00:01:04;99489.88;;;7.73;64.51
46223;BME280;31943;51.410;7.564;2022-09-30T00:03:30;99492.44;;;7.72;64.90
46223;BME280;31943;51.410;7.564;2022-09-30T00:05:56;99495.94;;;7.72;65.19
46223;BME280;31943;51.410;7.564;2022-09-30T00:08:22;99497.66;;;7.70;64.75
46223;BME280;31943;51.410;7.564;2022-09-30T00:10:57;99489.84;;;7.69;64.79
46223;BME280;31943;51.410;7.564;2022-09-30T00:13:24;99491.56;;;7.67;64.94
46223;BME280;31943;51.410;7.564;2022-09-30T00:15:50;99492.41;;;7.66;64.69
46223;BME280;31943;51.410;7.564;2022-09-30T00:18:17;99498.41;;;7.62;64.70
46223;BME280;31943;51.410;7.564;2022-09-30T00:20:43;99504.44;;;7.58;64.63
46223;BME280;31943;51.410;7.564;2022-09-30T00:23:08;99503.53;;;7.54;64.61
46223;BME280;31943;51.410;7.564;2022-09-30T00:25:34;99504.38;;;7.51;64.42
46223;BME280;31943;51.410;7.564;2022-09-30T00:28:00;99505.19;;;7.47;64.69
46223;BME280;31943;51.410;7.564;2022-09-30T00:30:25;99504.31;;;7.45;64.32
46223;BME280;31943;51.410;7.564;2022-09-30T00:32:51;99506.91;;;7.45;64.56
46223;BME280;31943;51.410;7.564;2022-09-30T00:35:19;99512.94;;;7.44;64.78
46223;BME280;31943;51.410;7.564;2022-09-30T00:37:45;99512.94;;;7.41;64.43
46223;BME280;31943;51.410;7.564;2022-09-30T00:40:10;99510.28;;;7.38;64.71
46223;BME280;31943;51.410;7.564;2022-09-30T00:42:39;99511.16;;;7.37;64.49
46223;BME280;31943;51.410;7.564;2022-09-30T00:45:06;99516.31;;;7.36;64.98
46223;BME280;31943;51.410;7.564;2022-09-30T00:47:39;99513.72;;;7.36;65.05
46223;BME280;31943;51.410;7.564;2022-09-30T00:50:24;99509.41;;;7.36;65.01
46223;BME280;31943;51.410;7.564;2022-09-30T00:52:55;99505.03;;;7.32;64.80
46223;BME280;31943;51.410;7.564;2022-09-30T00:55:25;99509.31;;;7.28;64.78
46223;BME280;31943;51.410;7.564;2022-09-30T00:57:51;99508.41;;;7.23;64.55
46223;BME280;31943;51.410;7.564;2022-09-30T01:00:18;99508.38;;;7.22;64.49
46223;BME280;31943;51.410;7.564;2022-09-30T01:02:45;99506.59;;;7.19;64.65
46223;BME280;31943;51.410;7.564;2022-09-30T01:05:11;99507.50;;;7.21;65.10
46223;BME280;31943;51.410;7.564;2022-09-30T01:07:39;99507.50;;;7.21;64.88
46223;BME280;31943;51.410;7.564;2022-09-30T01:10:05;99505.75;;;7.20;64.79
46223;BME280;31943;51.410;7.564;2022-09-30T01:12:31;99507.50;;;7.20;65.09
46223;BME280;31943;51.410;7.564;2022-09-30T01:14:59;99508.34;;;7.20;65.23
46223;BME280;31943;51.410;7.564;2022-09-30T01:17:35;99507.50;;;7.20;65.05
46223;BME280;31943;51.410;7.564;2022-09-30T01:23:48;99513.47;;;7.14;64.92
46223;BME280;31943;51.410;7.564;2022-09-30T01:26:41;99508.25;;;7.11;65.07
46223;BME280;31943;51.410;7.564;2022-09-30T01:29:40;99508.25;;;7.11;64.82
46223;BME280;31943;51.410;7.564;2022-09-30T01:32:22;99510.78;;;7.06;65.01
46223;BME280;31943;51.410;7.564;2022-09-30T01:35:04;99513.34;;;7.05;64.74
46223;BME280;31943;51.410;7.564;2022-09-30T01:37:38;99517.66;;;7.03;65.06
46223;BME280;31943;51.410;7.564;2022-09-30T01:40:13;99519.38;;;7.01;64.82
46223;BME280;31943;51.410;7.564;2022-09-30T01:42:50;99517.59;;;6.97;64.72
46223;BME280;31943;51.410;7.564;2022-09-30T01:45:25;99520.16;;;6.95;64.98
46223;BME280;31943;51.410;7.564;2022-09-30T01:47:59;99521.91;;;6.96;64.83
46223;BME280;31943;51.410;7.564;2022-09-30T01:50:27;99526.19;;;6.96;65.02
46223;BME280;31943;51.410;7.564;2022-09-30T01:53:02;99518.41;;;6.92;64.84
46223;BME280;31943;51.410;7.564;2022-09-30T01:55:32;99519.19;;;6.87;64.91
46223;BME280;31943;51.410;7.564;2022-09-30T01:58:03;99526.09;;;6.86;64.59
46223;BME280;31943;51.410;7.564;2022-09-30T02:00:31;99530.38;;;6.83;64.80
46223;BME280;31943;51.410;7.564;2022-09-30T02:03:04;99526.03;;;6.80;64.63
46223;BME280;31943;51.410;7.564;2022-09-30T02:05:36;99526.84;;;6.78;64.63
46223;BME280;31943;51.410;7.564;2022-09-30T02:08:08;99525.09;;;6.77;64.95
46223;BME280;31943;51.410;7.564;2022-09-30T02:10:41;99525.97;;;6.77;64.92
46223;BME280;31943;51.410;7.564;2022-09-30T02:13:12;99532.00;;;6.75;64.57
46223;BME280;31943;51.410;7.564;2022-09-30T02:15:44;99530.22;;;6.72;64.65
46223;BME280;31943;51.410;7.564;2022-09-30T02:18:16;99526.78;;;6.73;64.65
46223;BME280;31943;51.410;7.564;2022-09-30T02:20:49;99527.59;;;6.69;64.69
46223;BME280;31943;51.410;7.564;2022-09-30T02:23:21;99528.47;;;6.69;64.84
46223;BME280;31943;51.410;7.564;2022-09-30T02:25:54;99526.72;;;6.68;64.91
46223;BME280;31943;51.410;7.564;2022-09-30T02:28:25;99525.81;;;6.66;64.86
46223;BME280;31943;51.410;7.564;2022-09-30T02:30:55;99532.72;;;6.66;64.82
46223;BME280;31943;51.410;7.564;2022-09-30T02:33:29;99533.59;;;6.66;64.89
46223;BME280;31943;51.410;7.564;2022-09-30T02:36:01;99531.00;;;6.65;64.83
46223;BME280;31943;51.410;7.564;2022-09-30T02:38:30;99527.50;;;6.64;64.97
46223;BME280;31943;51.410;7.564;2022-09-30T02:41:01;99526.63;;;6.62;64.77
46223;BME280;31943;51.410;7.564;2022-09-30T02:43:29;99525.75;;;6.62;64.85
46223;BME280;31943;51.410;7.564;2022-09-30T02:46:02;99517.09;;;6.60;64.66
46223;BME280;31943;51.410;7.564;2022-09-30T02:48:41;99527.44;;;6.57;65.08
46223;BME280;31943;51.410;7.564;2022-09-30T02:51:14;99517.03;;;6.55;64.96
46223;BME280;31943;51.410;7.564;2022-09-30T02:53:43;99518.72;;;6.53;65.33
46223;BME280;31943;51.410;7.564;2022-09-30T02:56:21;99517.88;;;6.56;64.85
46223;BME280;31943;51.410;7.564;2022-09-30T02:58:50;99526.53;;;6.56;65.03
46223;BME280;31943;51.410;7.564;2022-09-30T03:01:17;99530.81;;;6.54;64.82
46223;BME280;31943;51.410;7.564;2022-09-30T03:03:47;99535.97;;;6.52;64.58
46223;BME280;31943;51.410;7.564;2022-09-30T03:06:15;99532.50;;;6.49;64.38
46223;BME280;31943;51.410;7.564;2022-09-30T03:08:42;99536.78;;;6.47;64.65
46223;BME280;31943;51.410;7.564;2022-09-30T03:11:11;99544.56;;;6.47;64.73
46223;BME280;31943;51.410;7.564;2022-09-30T03:14:02;99548.88;;;6.48;64.70
46223;BME280;31943;51.410;7.564;2022-09-30T03:17:00;99548.81;;;6.43;64.62
46223;BME280;31943;51.410;7.564;2022-09-30T03:19:40;99547.09;;;6.44;64.87
46223;BME280;31943;51.410;7.564;2022-09-30T03:22:46;99546.22;;;6.45;64.96
46223;BME280;31943;51.410;7.564;2022-09-30T03:25:29;99551.34;;;6.40;65.10
46223;BME280;31943;51.410;7.564;2022-09-30T03:28:09;99547.88;;;6.38;64.79
46223;BME280;31943;51.410;7.564;2022-09-30T03:30:45;99554.78;;;6.38;64.81
46223;BME280;31943;51.410;7.564;2022-09-30T03:33:18;99556.47;;;6.36;64.90
46223;BME280;31943;51.410;7.564;2022-09-30T03:35:54;99557.31;;;6.34;64.88
46223;BME280;31943;51.410;7.564;2022-09-30T03:38:32;99565.03;;;6.33;64.76
46223;BME280;31943;51.410;7.564;2022-09-30T03:41:05;99565.88;;;6.30;64.63
46223;BME280;31943;51.410;7.564;2022-09-30T03:43:36;99570.13;;;6.27;64.89
46223;BME280;31943;51.410;7.564;2022-09-30T03:46:08;99571.88;;;6.28;64.82
46223;BME280;31943;51.410;7.564;2022-09-30T03:48:39;99564.09;;;6.26;64.76
46223;BME280;31943;51.410;7.564;2022-09-30T03:51:09;99558.91;;;6.26;64.73
46223;BME280;31943;51.410;7.564;2022-09-30T03:53:37;99564.03;;;6.23;65.04
46223;BME280;31943;51.410;7.564;2022-09-30T03:56:03;99568.31;;;6.21;64.50
46223;BME280;31943;51.410;7.564;2022-09-30T03:58:29;99566.56;;;6.19;64.73
46223;BME280;31943;51.410;7.564;2022-09-30T04:00:55;99571.69;;;6.17;64.73
46223;BME280;31943;51.410;7.564;2022-09-30T04:03:21;99572.53;;;6.14;64.95
46223;BME280;31943;51.410;7.564;2022-09-30T04:05:47;99576.78;;;6.11;64.71
46223;BME280;31943;51.410;7.564;2022-09-30T04:08:15;99574.19;;;6.11;64.67
46223;BME280;31943;51.410;7.564;2022-09-30T04:10:42;99577.63;;;6.10;64.84
46223;BME280;31943;51.410;7.564;2022-09-30T04:13:09;99578.44;;;6.07;64.96
46223;BME280;31943;51.410;7.564;2022-09-30T04:15:35;99583.63;;;6.06;64.77
46223;BME280;31943;51.410;7.564;2022-09-30T04:18:05;99588.75;;;6.04;64.83
46223;BME280;31943;51.410;7.564;2022-09-30T04:20:31;99590.47;;;6.02;64.83
46223;BME280;31943;51.410;7.564;2022-09-30T04:22:57;99599.88;;;5.99;64.65
46223;BME280;31943;51.410;7.564;2022-09-30T04:25:26;99598.13;;;5.96;64.58
46223;BME280;31943;51.410;7.564;2022-09-30T04:27:52;99608.41;;;5.94;64.89
46223;BME280;31943;51.410;7.564;2022-09-30T04:30:18;99610.97;;;5.93;64.60
46223;BME280;31943;51.410;7.564;2022-09-30T04:32:43;99613.56;;;5.93;64.56
46223;BME280;31943;51.410;7.564;2022-09-30T04:35:09;99615.34;;;5.96;65.03
46223;BME280;31943;51.410;7.564;2022-09-30T04:37:35;99620.47;;;5.92;64.78
46223;BME280;31943;51.410;7.564;2022-09-30T04:40:01;99622.97;;;5.89;64.82
46223;BME280;31943;51.410;7.564;2022-09-30T04:42:28;99623.84;;;5.90;64.79
46223;BME280;31943;51.410;7.564;2022-09-30T04:44:54;99629.03;;;5.90;64.98
46223;BME280;31943;51.410;7.564;2022-09-30T04:47:19;99623.88;;;5.91;64.94
46223;BME280;31943;51.410;7.564;2022-09-30T04:49:45;99625.63;;;5.92;65.03
46223;BME280;31943;51.410;7.564;2022-09-30T04:52:10;99627.38;;;5.92;64.86
46223;BME280;31943;51.410;7.564;2022-09-30T04:54:36;99630.75;;;5.89;64.78
46223;BME280;31943;51.410;7.564;2022-09-30T04:57:02;99637.63;;;5.87;64.93
46223;BME280;31943;51.410;7.564;2022-09-30T04:59:29;99635.88;;;5.86;64.83
46223;BME280;31943;51.410;7.564;2022-09-30T05:01:55;99647.03;;;5.84;64.78
46223;BME280;31943;51.410;7.564;2022-09-30T05:04:20;99647.94;;;5.84;64.84
46223;BME280;31943;51.410;7.564;2022-09-30T05:06:46;99650.53;;;5.84;64.91
46223;BME280;31943;51.410;7.564;2022-09-30T05:09:12;99651.38;;;5.85;65.03
46223;BME280;31943;51.410;7.564;2022-09-30T05:11:37;99647.91;;;5.83;64.92
46223;BME280;31943;51.410;7.564;2022-09-30T05:14:05;99650.47;;;5.83;64.85
46223;BME280;31943;51.410;7.564;2022-09-30T05:16:34;99649.63;;;5.82;64.96
46223;BME280;31943;51.410;7.564;2022-09-30T05:19:00;99652.16;;;5.81;64.97
46223;BME280;31943;51.410;7.564;2022-09-30T05:21:25;99654.72;;;5.79;64.94
46223;BME280;31943;51.410;7.564;2022-09-30T05:23:52;99659.88;;;5.78;64.76
46223;BME280;31943;51.410;7.564;2022-09-30T05:26:18;99653.78;;;5.75;64.88
46223;BME280;31943;51.410;7.564;2022-09-30T05:28:44;99645.97;;;5.74;64.84
46223;BME280;31943;51.410;7.564;2022-09-30T05:31:09;99653.78;;;5.75;64.88
46223;BME280;31943;51.410;7.564;2022-09-30T05:33:36;99644.28;;;5.74;65.20
46223;BME280;31943;51.410;7.564;2022-09-30T05:36:04;99648.66;;;5.77;65.06
46223;BME280;31943;51.410;7.564;2022-09-30T05:38:30;99652.97;;;5.78;65.37
46223;BME280;31943;51.410;7.564;2022-09-30T05:40:56;99659.81;;;5.76;65.20
46223;BME280;31943;51.410;7.564;2022-09-30T05:43:22;99657.28;;;5.78;65.08
46223;BME280;31943;51.410;7.564;2022-09-30T05:45:52;99660.72;;;5.77;65.05
46223;BME280;31943;51.410;7.564;2022-09-30T05:48:18;99668.50;;;5.77;64.67
46223;BME280;31943;51.410;7.564;2022-09-30T05:50:46;99671.09;;;5.78;64.99
46223;BME280;31943;51.410;7.564;2022-09-30T05:53:11;99671.94;;;5.77;64.66
46223;BME280;31943;51.410;7.564;2022-09-30T05:55:37;99678.88;;;5.80;64.73
46223;BME280;31943;51.410;7.564;2022-09-30T05:58:03;99677.19;;;5.82;64.78
46223;BME280;31943;51.410;7.564;2022-09-30T06:00:28;99670.34;;;5.84;64.94
46223;BME280;31943;51.410;7.564;2022-09-30T06:02:54;99675.50;;;5.84;64.77
46223;BME280;31943;51.410;7.564;2022-09-30T06:05:19;99673.81;;;5.84;65.13
46223;BME280;31943;51.410;7.564;2022-09-30T06:07:46;99684.25;;;5.89;64.94
46223;BME280;31943;51.410;7.564;2022-09-30T06:10:12;99677.44;;;5.92;65.24
46223;BME280;31943;51.410;7.564;2022-09-30T06:12:38;99691.34;;;5.96;65.10
46223;BME280;31943;51.410;7.564;2022-09-30T06:15:04;99698.34;;;6.00;65.22
46223;BME280;31943;51.410;7.564;2022-09-30T06:17:30;99707.03;;;6.04;65.01
46223;BME280;31943;51.410;7.564;2022-09-30T06:19:56;99710.53;;;6.06;65.05
46223;BME280;31943;51.410;7.564;2022-09-30T06:22:22;99712.22;;;6.05;64.90
46223;BME280;31943;51.410;7.564;2022-09-30T06:24:50;99710.53;;;6.06;65.27
46223;BME280;31943;51.410;7.564;2022-09-30T06:27:15;99713.13;;;6.07;65.33
46223;BME280;31943;51.410;7.564;2022-09-30T06:29:41;99707.16;;;6.10;65.45
46223;BME280;31943;51.410;7.564;2022-09-30T06:32:07;99708.09;;;6.13;65.57
46223;BME280;31943;51.410;7.564;2022-09-30T06:34:32;99714.22;;;6.19;65.52
46223;BME280;31943;51.410;7.564;2022-09-30T06:36:58;99721.16;;;6.21;65.65
46223;BME280;31943;51.410;7.564;2022-09-30T06:39:23;99716.91;;;6.25;65.79
46223;BME280;31943;51.410;7.564;2022-09-30T06:41:50;99721.28;;;6.26;65.77
46223;BME280;31943;51.410;7.564;2022-09-30T06:44:16;99723.91;;;6.29;65.81
46223;BME280;31943;51.410;7.564;2022-09-30T06:46:42;99723.13;;;6.31;65.86
46223;BME280;31943;51.410;7.564;2022-09-30T06:49:08;99728.34;;;6.34;65.98
46223;BME280;31943;51.410;7.564;2022-09-30T06:51:35;99724.94;;;6.39;66.27
46223;BME280;31943;51.410;7.564;2022-09-30T06:54:01;99739.72;;;6.43;66.14
46223;BME280;31943;51.410;7.564;2022-09-30T06:56:27;99733.69;;;6.44;66.31
46223;BME280;31943;51.410;7.564;2022-09-30T06:58:54;99738.06;;;6.46;66.64
46223;BME280;31943;51.410;7.564;2022-09-30T07:01:22;99743.22;;;6.46;66.83
46223;BME280;31943;51.410;7.564;2022-09-30T07:03:50;99743.19;;;6.43;66.86
46223;BME280;31943;51.410;7.564;2022-09-30T07:06:15;99745.72;;;6.40;67.10
46223;BME280;31943;51.410;7.564;2022-09-30T07:08:41;99736.28;;;6.44;67.46
46223;BME280;31943;51.410;7.564;2022-09-30T07:11:08;99747.63;;;6.49;67.26
46223;BME280;31943;51.410;7.564;2022-09-30T07:13:34;99749.47;;;6.56;67.48
46223;BME280;31943;51.410;7.564;2022-09-30T07:16:02;99740.06;;;6.61;67.43
46223;BME280;31943;51.410;7.564;2022-09-30T07:18:28;99737.56;;;6.67;67.30
46223;BME280;31943;51.410;7.564;2022-09-30T07:20:55;99748.06;;;6.75;67.07
46223;BME280;31943;51.410;7.564;2022-09-30T07:23:22;99752.53;;;6.82;67.22
46223;BME280;31943;51.410;7.564;2022-09-30T07:25:49;99746.56;;;6.88;67.17
46223;BME280;31943;51.410;7.564;2022-09-30T07:28:16;99747.50;;;6.93;67.61
46223;BME280;31943;51.410;7.564;2022-09-30T07:30:42;99747.59;;;6.99;68.05
46223;BME280;31943;51.410;7.564;2022-09-30T07:33:11;99746.88;;;7.06;68.20
46223;BME280;31943;51.410;7.564;2022-09-30T07:35:37;99756.47;;;7.12;67.92
46223;BME280;31943;51.410;7.564;2022-09-30T07:38:03;99759.97;;;7.14;68.03
46223;BME280;31943;51.410;7.564;2022-09-30T07:40:28;99754.78;;;7.14;68.36
46223;BME280;31943;51.410;7.564;2022-09-30T07:42:55;99752.22;;;7.16;68.58
46223;BME280;31943;51.410;7.564;2022-09-30T07:45:21;99758.38;;;7.22;68.56
46223;BME280;31943;51.410;7.564;2022-09-30T07:47:46;99757.59;;;7.28;68.24
46223;BME280;31943;51.410;7.564;2022-09-30T07:52:41;99758.56;;;7.36;68.68
46223;BME280;31943;51.410;7.564;2022-09-30T07:55:07;99758.66;;;7.42;68.50
46223;BME280;31943;51.410;7.564;2022-09-30T07:57:33;99755.34;;;7.51;68.48
46223;BME280;31943;51.410;7.564;2022-09-30T08:00:00;99752.84;;;7.59;68.58
46223;BME280;31943;51.410;7.564;2022-09-30T08:02:25;99752.09;;;7.67;68.58
46223;BME280;31943;51.410;7.564;2022-09-30T08:04:51;99753.09;;;7.77;68.09
46223;BME280;31943;51.410;7.564;2022-09-30T08:07:20;99758.44;;;7.88;68.30
46223;BME280;31943;51.410;7.564;2022-09-30T08:09:45;99759.41;;;7.98;68.19
46223;BME280;31943;51.410;7.564;2022-09-30T08:12:11;99753.47;;;8.06;68.40
46223;BME280;31943;51.410;7.564;2022-09-30T08:14:37;99755.31;;;8.17;68.20
46223;BME280;31943;51.410;7.564;2022-09-30T08:17:03;99753.66;;;8.22;68.53
46223;BME280;31943;51.410;7.564;2022-09-30T08:19:29;99759.84;;;8.31;68.57
46223;BME280;31943;51.410;7.564;2022-09-30T08:21:57;99761.75;;;8.45;68.36
46223;BME280;31943;51.410;7.564;2022-09-30T08:24:25;99762.69;;;8.53;68.63
46223;BME280;31943;51.410;7.564;2022-09-30T08:26:51;99765.38;;;8.62;68.84
46223;BME280;31943;51.410;7.564;2022-09-30T08:29:17;99768.97;;;8.75;68.74
46223;BME280;31943;51.410;7.564;2022-09-30T08:31:42;99770.00;;;8.91;68.99
46223;BME280;31943;51.410;7.564;2022-09-30T08:34:08;99777.97;;;9.08;69.16
46223;BME280;31943;51.410;7.564;2022-09-30T08:36:34;99772.84;;;9.20;68.57
46223;BME280;31943;51.410;7.564;2022-09-30T08:39:00;99764.28;;;9.35;68.63
46223;BME280;31943;51.410;7.564;2022-09-30T08:41:47;99765.28;;;9.54;68.84
46223;BME280;31943;51.410;7.564;2022-09-30T08:44:42;99770.63;;;9.77;68.84
46223;BME280;31943;51.410;7.564;2022-09-30T08:47:24;99761.16;;;9.93;68.58
46223;BME280;31943;51.410;7.564;2022-09-30T08:50:00;99766.44;;;10.10;68.49
46223;BME280;31943;51.410;7.564;2022-09-30T08:52:31;99765.63;;;10.28;68.45
46223;BME280;31943;51.410;7.564;2022-09-30T08:54:58;99771.81;;;10.50;68.09
46223;BME280;31943;51.410;7.564;2022-09-30T08:57:27;99772.75;;;10.69;68.06
46223;BME280;31943;51.410;7.564;2022-09-30T09:00:00;99769.31;;;10.84;67.89
46223;BME280;31943;51.410;7.564;2022-09-30T09:02:31;99771.03;;;11.00;67.54
46223;BME280;31943;51.410;7.564;2022-09-30T09:05:00;99764.94;;;11.15;67.30
46223;BME280;31943;51.410;7.564;2022-09-30T09:07:36;99768.41;;;11.33;66.77
46223;BME280;31943;51.410;7.564;2022-09-30T09:10:22;99764.91;;;11.52;66.67
46223;BME280;31943;51.410;7.564;2022-09-30T09:12:58;99768.38;;;11.66;66.53
46223;BME280;31943;51.410;7.564;2022-09-30T09:15:35;99768.34;;;11.82;66.19
46223;BME280;31943;51.410;7.564;2022-09-30T09:18:15;99763.94;;;11.99;66.13
46223;BME280;31943;51.410;7.564;2022-09-30T09:20:53;99763.88;;;12.16;65.59
46223;BME280;31943;51.410;7.564;2022-09-30T09:23:20;99764.72;;;12.26;65.45
46223;BME280;31943;51.410;7.564;2022-09-30T09:25:46;99762.03;;;12.38;64.92
46223;BME280;31943;51.410;7.564;2022-09-30T09:28:24;99761.09;;;12.55;64.53
46223;BME280;31943;51.410;7.564;2022-09-30T09:30:54;99768.88;;;12.65;64.00
46223;BME280;31943;51.410;7.564;2022-09-30T09:33:25;99762.69;;;12.79;63.78
46223;BME280;31943;51.410;7.564;2022-09-30T09:35:59;99764.25;;;13.01;63.18
46223;BME280;31943;51.410;7.564;2022-09-30T09:38:29;99761.50;;;13.21;62.40
46223;BME280;31943;51.410;7.564;2022-09-30T09:41:07;99757.91;;;13.29;62.23
46223;BME280;31943;51.410;7.564;2022-09-30T09:43:53;99754.31;;;13.43;61.37
46223;BME280;31943;51.410;7.564;2022-09-30T09:46:23;99748.94;;;13.56;60.38
46223;BME280;31943;51.410;7.564;2022-09-30T09:49:20;99749.69;;;13.70;59.61
46223;BME280;31943;51.410;7.564;2022-09-30T09:54:54;99751.34;;;13.77;58.14
46223;BME280;31943;51.410;7.564;2022-09-30T09:57:21;99756.44;;;13.90;58.15
46223;BME280;31943;51.410;7.564;2022-09-30T09:59:55;99756.22;;;14.10;57.62
46223;BME280;31943;51.410;7.564;2022-09-30T10:02:23;99748.94;;;14.33;56.86
46223;BME280;31943;51.410;7.564;2022-09-30T10:04:51;99749.53;;;14.57;55.35
46223;BME280;31943;51.410;7.564;2022-09-30T10:07:19;99745.75;;;14.75;53.98
46223;BME280;31943;51.410;7.564;2022-09-30T10:09:44;99746.50;;;14.83;53.64
46223;BME280;31943;51.410;7.564;2022-09-30T10:12:27;99747.09;;;15.00;54.28
46223;BME280;31943;51.410;7.564;2022-09-30T10:14:58;99744.25;;;15.14;53.87
46223;BME280;31943;51.410;7.564;2022-09-30T10:17:26;99742.38;;;15.21;52.89
46223;BME280;31943;51.410;7.564;2022-09-30T10:19:57;99755.09;;;15.46;53.14
46223;BME280;31943;51.410;7.564;2022-09-30T10:22:26;99744.31;;;15.59;52.07
46223;BME280;31943;51.410;7.564;2022-09-30T10:25:09;99742.28;;;15.75;50.79
46223;BME280;31943;51.410;7.564;2022-09-30T10:27:47;99735.56;;;15.59;50.92
46223;BME280;31943;51.410;7.564;2022-09-30T10:30:29;99736.19;;;15.72;50.59
46223;BME280;31943;51.410;7.564;2022-09-30T10:32:55;99745.03;;;15.68;51.43
46223;BME280;31943;51.410;7.564;2022-09-30T10:35:23;99747.41;;;15.35;51.91
46223;BME280;31943;51.410;7.564;2022-09-30T10:37:50;99754.91;;;15.05;52.47
46223;BME280;31943;51.410;7.564;2022-09-30T10:40:17;99752.34;;;15.00;51.99
46223;BME280;31943;51.410;7.564;2022-09-30T10:42:47;99754.38;;;14.81;52.05
46223;BME280;31943;51.410;7.564;2022-09-30T10:45:19;99747.47;;;14.76;51.89
46223;BME280;31943;51.410;7.564;2022-09-30T10:47:49;99748.03;;;14.98;52.00
46223;BME280;31943;51.410;7.564;2022-09-30T10:50:19;99752.66;;;14.80;51.54
46223;BME280;31943;51.410;7.564;2022-09-30T10:52:48;99750.06;;;14.79;52.01
46223;BME280;31943;51.410;7.564;2022-09-30T10:55:27;99742.59;;;15.09;51.16
46223;BME280;31943;51.410;7.564;2022-09-30T10:57:59;99737.66;;;15.40;50.78
46223;BME280;31943;51.410;7.564;2022-09-30T11:00:30;99741.06;;;15.47;49.73
46223;BME280;31943;51.410;7.564;2022-09-30T11:02:58;99740.81;;;15.60;49.52
46223;BME280;31943;51.410;7.564;2022-09-30T11:05:27;99734.47;;;15.71;49.35
46223;BME280;31943;51.410;7.564;2022-09-30T11:08:01;99731.63;;;15.83;48.98
46223;BME280;31943;51.410;7.564;2022-09-30T11:10:33;99735.88;;;15.90;48.50
46223;BME280;31943;51.410;7.564;2022-09-30T11:13:05;99739.91;;;16.08;48.60
46223;BME280;31943;51.410;7.564;2022-09-30T11:15:39;99736.78;;;16.31;47.83
46223;BME280;31943;51.410;7.564;2022-09-30T11:18:13;99742.69;;;16.43;47.18
46223;BME280;31943;51.410;7.564;2022-09-30T11:20:45;99737.31;;;16.47;46.26
46223;BME280;31943;51.410;7.564;2022-09-30T11:23:18;99745.84;;;16.58;47.17
46223;BME280;31943;51.410;7.564;2022-09-30T11:25:49;99741.25;;;16.67;47.07
46223;BME280;31943;51.410;7.564;2022-09-30T11:28:31;99747.72;;;16.52;47.40
46223;BME280;31943;51.410;7.564;2022-09-30T11:31:03;99751.81;;;16.65;47.19
46223;BME280;31943;51.410;7.564;2022-09-30T11:33:52;99750.59;;;16.43;46.98
46223;BME280;31943;51.410;7.564;2022-09-30T11:36:29;99755.09;;;16.36;46.59
46223;BME280;31943;51.410;7.564;2022-09-30T11:39:12;99751.06;;;16.19;46.93
46223;BME280;31943;51.410;7.564;2022-09-30T11:41:45;99751.78;;;16.28;46.97
46223;BME280;31943;51.410;7.564;2022-09-30T11:44:21;99744.53;;;15.95;46.34
46223;BME280;31943;51.410;7.564;2022-09-30T11:47:06;99747.00;;;16.03;46.00
46223;BME280;31943;51.410;7.564;2022-09-30T11:49:49;99744.75;;;16.27;46.18
46223;BME280;31943;51.410;7.564;2022-09-30T11:52:21;99752.91;;;16.56;46.17
46223;BME280;31943;51.410;7.564;2022-09-30T11:55:16;99756.56;;;16.90;45.47
46223;BME280;31943;51.410;7.564;2022-09-30T11:57:50;99753.22;;;16.82;44.13
46223;BME280;31943;51.410;7.564;2022-09-30T12:00:19;99750.53;;;16.85;44.78
46223;BME280;31943;51.410;7.564;2022-09-30T12:02:48;99760.03;;;16.92;44.67
46223;BME280;31943;51.410;7.564;2022-09-30T12:05:18;99764.34;;;16.96;45.35
46223;BME280;31943;51.410;7.564;2022-09-30T12:07:47;99759.53;;;17.13;44.88
46223;BME280;31943;51.410;7.564;2022-09-30T12:10:18;99745.81;;;17.33;44.60
46223;BME280;31943;51.410;7.564;2022-09-30T12:12:45;99747.78;;;17.25;44.17
46223;BME280;31943;51.410;7.564;2022-09-30T12:15:15;99752.94;;;17.30;44.19
46223;BME280;31943;51.410;7.564;2022-09-30T12:17:45;99748.09;;;17.47;43.69
46223;BME280;31943;51.410;7.564;2022-09-30T12:20:18;99755.88;;;17.52;43.74
46223;BME280;31943;51.410;7.564;2022-09-30T12:22:46;99751.03;;;17.69;44.29
46223;BME280;31943;51.410;7.564;2022-09-30T12:25:16;99747.63;;;17.31;44.60
46223;BME280;31943;51.410;7.564;2022-09-30T12:27:48;99747.19;;;17.48;44.54
46223;BME280;31943;51.410;7.564;2022-09-30T12:30:17;99747.69;;;17.63;44.15
46223;BME280;31943;51.410;7.564;2022-09-30T12:33:16;99745.34;;;17.17;43.94
46223;BME280;31943;51.410;7.564;2022-09-30T12:36:32;99743.75;;;16.73;45.52
46223;BME280;31943;51.410;7.564;2022-09-30T12:42:31;99735.56;;;16.87;45.73
46223;BME280;31943;51.410;7.564;2022-09-30T12:45:27;99726.09;;;17.14;44.01
46223;BME280;31943;51.410;7.564;2022-09-30T12:47:59;99721.34;;;16.94;44.25
46223;BME280;31943;51.410;7.564;2022-09-30T12:50:33;99720.00;;;16.74;44.30
46223;BME280;31943;51.410;7.564;2022-09-30T12:53:15;99714.47;;;16.87;44.13
46223;BME280;31943;51.410;7.564;2022-09-30T12:55:42;99708.66;;;17.08;43.36
46223;BME280;31943;51.410;7.564;2022-09-30T12:58:18;99716.44;;;17.13;43.72
46223;BME280;31943;51.410;7.564;2022-09-30T13:00:58;99700.91;;;17.36;44.14
46223;BME280;31943;51.410;7.564;2022-09-30T13:03:25;99701.47;;;17.48;43.75
46223;BME280;31943;51.410;7.564;2022-09-30T13:05:55;99696.09;;;17.52;42.07
46223;BME280;31943;51.410;7.564;2022-09-30T13:08:44;99690.84;;;17.51;42.03
46223;BME280;31943;51.410;7.564;2022-09-30T13:11:31;99687.22;;;17.55;42.46
46223;BME280;31943;51.410;7.564;2022-09-30T13:14:02;99689.72;;;17.59;42.14
46223;BME280;31943;51.410;7.564;2022-09-30T13:17:01;99689.56;;;17.66;42.27
46223;BME280;31943;51.410;7.564;2022-09-30T13:19:33;99693.19;;;17.62;42.33
46223;BME280;31943;51.410;7.564;2022-09-30T13:25:09;99691.94;;;17.75;41.99
46223;BME280;31943;51.410;7.564;2022-09-30T13:27:37;99679.59;;;17.75;41.92
46223;BME280;31943;51.410;7.564;2022-09-30T13:30:30;99678.56;;;17.81;41.84
46223;BME280;31943;51.410;7.564;2022-09-30T13:33:25;99677.94;;;17.73;41.59
46223;BME280;31943;51.410;7.564;2022-09-30T13:35:57;99669.81;;;17.79;42.26
46223;BME280;31943;51.410;7.564;2022-09-30T13:38:33;99672.22;;;17.90;42.36
46223;BME280;31943;51.410;7.564;2022-09-30T13:41:04;99675.78;;;17.87;41.50
46223;BME280;31943;51.410;7.564;2022-09-30T13:43:37;99677.72;;;17.81;41.60